Time;durP1;ratioP1;P1;durP2;ratioP2;P2;SDS_P1;SDS_P2;PMS_P1;PMS_P2;Temp;Humidity;BMP_temperature;BMP_pressure;BME280_temperature;BME280_humidity;BME280_pressure;Samples;Min_cycle;Max_cycle;Signal;HPM_P1;HPM_P2
2023/09/27 00:01:04;;;;;;;8.30;5.32;;;;;;;16.65;65.23;99035.44;5094497;28;20078;-47
2023/09/27 00:03:30;;;;;;;11.43;5.20;;;;;;;16.12;67.08;99040.59;5094460;28;20398;-46
2023/09/27 00:05:55;;;;;;;12.25;6.30;;;;;;;15.60;68.69;99045.59;5094626;28;20069;-46
2023/09/27 00:08:22;;;;;;;12.07;6.20;;;;;;;15.28;70.41;99045.78;5094040;28;20032;-46
2023/09/27 00:10:47;;;;;;;14.52;6.80;;;;;;;15.06;71.62;99044.63;5094241;28;20107;-46
2023/09/27 00:13:13;;;;;;;9.95;6.88;;;;;;;14.91;72.75;99045.81;5092910;28;20565;-47
2023/09/27 00:15:39;;;;;;;11.18;6.38;;;;;;;14.83;73.68;99051.38;5094244;28;20084;-46
2023/09/27 00:18:06;;;;;;;12.93;6.28;;;;;;;14.81;74.34;99045.50;5094202;28;20027;-46
2023/09/27 00:20:32;;;;;;;14.35;6.82;;;;;;;15.07;74.55;99044.41;5092915;28;20028;-46
2023/09/27 00:22:58;;;;;;;13.73;5.70;;;;;;;15.60;74.61;99053.53;5093102;28;20028;-47
2023/09/27 00:25:24;;;;;;;16.30;6.70;;;;;;;16.20;72.91;99049.22;5094047;28;20052;-46
2023/09/27 00:27:49;;;;;;;12.43;5.60;;;;;;;16.68;70.71;99056.19;5093987;28;20083;-47
2023/09/27 00:30:16;;;;;;;13.27;6.07;;;;;;;16.86;69.79;99060.56;5092548;28;20024;-46
2023/09/27 00:32:44;;;;;;;15.27;6.63;;;;;;;17.05;68.41;99045.34;5094190;28;20367;-47
2023/09/27 00:35:14;;;;;;;12.68;6.50;;;;;;;17.04;67.64;99054.34;5093685;28;20509;-47
2023/09/27 00:37:40;;;;;;;15.20;7.47;;;;;;;17.15;67.48;99050.88;5093805;28;20020;-47
2023/09/27 00:40:10;;;;;;;16.48;6.13;;;;;;;17.31;66.91;99058.09;5093712;28;20038;-47
2023/09/27 00:42:37;;;;;;;18.33;7.13;;;;;;;17.41;66.17;99060.13;5093696;28;20429;-47
2023/09/27 00:45:03;;;;;;;9.80;6.45;;;;;;;17.62;65.59;99061.31;5093658;28;20024;-47
2023/09/27 00:47:30;;;;;;;14.30;5.60;;;;;;;17.64;64.46;99067.19;5093649;28;20366;-47
2023/09/27 00:49:56;;;;;;;13.30;5.70;;;;;;;17.55;64.01;99068.63;5093496;28;20030;-45
2023/09/27 00:52:22;;;;;;;15.20;5.00;;;;;;;17.64;64.04;99074.38;5093457;28;20035;-45
2023/09/27 00:54:49;;;;;;;19.73;6.95;;;;;;;17.35;63.98;99074.34;5093550;28;20036;-45
2023/09/27 00:57:15;;;;;;;12.07;5.28;;;;;;;17.02;64.09;99081.06;5093382;28;20016;-45
2023/09/27 00:59:40;;;;;;;13.65;5.30;;;;;;;16.68;64.78;99082.69;5092069;28;20084;-44
2023/09/27 01:02:06;;;;;;;7.30;3.88;;;;;;;16.37;65.48;99088.06;5092876;28;20485;-44
2023/09/27 01:04:32;;;;;;;10.27;4.40;;;;;;;16.01;66.07;99083.72;5093532;28;20044;-45
2023/09/27 01:06:59;;;;;;;13.93;4.70;;;;;;;15.71;66.83;99087.16;5092949;28;20475;-45
2023/09/27 01:09:25;;;;;;;19.63;4.45;;;;;;;15.47;67.51;99085.44;5093159;28;20028;-44
2023/09/27 01:11:51;;;;;;;14.63;4.50;;;;;;;15.23;68.12;99084.50;5093153;28;20052;-45
2023/09/27 01:14:17;;;;;;;8.48;3.72;;;;;;;15.06;69.33;99094.84;5091885;28;20059;-46
2023/09/27 01:16:43;;;;;;;14.82;4.40;;;;;;;14.92;70.03;99088.88;5093012;28;20442;-47
2023/09/27 01:19:09;;;;;;;13.73;5.63;;;;;;;14.82;70.69;99089.38;5093282;28;20137;-46
2023/09/27 01:21:35;;;;;;;25.98;5.65;;;;;;;15.10;72.06;99082.81;5092946;28;20027;-47
2023/09/27 01:24:01;;;;;;;10.50;4.82;;;;;;;15.84;71.92;99083.56;5092952;28;20031;-47
2023/09/27 01:26:28;;;;;;;12.32;5.00;;;;;;;16.45;69.84;99083.47;5092935;28;20488;-47
2023/09/27 01:28:54;;;;;;;5.88;3.97;;;;;;;16.83;67.92;99084.91;5091518;28;20115;-47
2023/09/27 01:31:20;;;;;;;11.30;5.43;;;;;;;16.73;66.54;99073.00;5092550;28;20111;-47
2023/09/27 01:33:46;;;;;;;19.33;5.28;;;;;;;16.88;66.88;99085.00;5091497;28;20059;-47
2023/09/27 01:36:12;;;;;;;11.05;4.93;;;;;;;17.09;65.73;99078.31;5092626;28;20520;-47
2023/09/27 01:38:38;;;;;;;13.77;5.80;;;;;;;17.20;65.43;99074.81;5092908;28;20099;-47
2023/09/27 01:41:04;;;;;;;8.07;4.65;;;;;;;17.38;64.56;99079.16;5092622;28;20497;-47
2023/09/27 01:43:30;;;;;;;9.07;4.95;;;;;;;17.28;64.12;99089.56;5092574;28;20020;-47
2023/09/27 01:45:56;;;;;;;9.55;4.75;;;;;;;17.29;64.27;99078.75;5091176;28;20085;-47
2023/09/27 01:48:22;;;;;;;9.02;4.53;;;;;;;17.19;63.74;99085.69;5092502;28;20028;-47
2023/09/27 01:50:48;;;;;;;9.48;4.78;;;;;;;17.07;64.01;99089.16;5092320;28;20024;-47
2023/09/27 01:53:13;;;;;;;10.73;4.50;;;;;;;16.84;63.87;99095.28;5091046;28;20027;-47
2023/09/27 01:55:39;;;;;;;10.70;4.50;;;;;;;16.20;64.42;99097.72;5091050;28;20039;-47
2023/09/27 01:58:05;;;;;;;7.53;4.15;;;;;;;15.72;65.97;99091.47;5092320;28;20389;-47
2023/09/27 02:00:31;;;;;;;8.85;4.60;;;;;;;15.55;67.41;99106.28;5092322;28;20039;-46
2023/09/27 02:02:58;;;;;;;12.32;4.18;;;;;;;15.52;67.90;99106.75;5092289;28;20023;-47
2023/09/27 02:05:28;;;;;;;12.20;5.78;;;;;;;15.22;68.26;99104.84;5092163;28;20028;-46
2023/09/27 02:07:54;;;;;;;10.68;5.25;;;;;;;15.07;69.64;99105.22;5091965;28;20051;-46
2023/09/27 02:10:20;;;;;;;8.80;5.35;;;;;;;15.25;70.09;99101.78;5090686;28;20063;-46
2023/09/27 02:12:46;;;;;;;10.60;4.75;;;;;;;15.38;70.11;99106.09;5092050;28;20498;-46
2023/09/27 02:15:14;;;;;;;15.20;5.85;;;;;;;15.43;69.67;99097.47;5091298;28;20108;-46
2023/09/27 02:17:40;;;;;;;13.52;5.45;;;;;;;15.37;69.35;99105.28;5092036;28;20028;-46
2023/09/27 02:20:07;;;;;;;11.95;5.57;;;;;;;15.24;69.84;99101.97;5091967;28;20020;-46
2023/09/27 02:22:34;;;;;;;11.70;5.82;;;;;;;15.00;69.88;99107.09;5090690;28;20051;-46
2023/09/27 02:25:00;;;;;;;7.63;5.03;;;;;;;14.63;70.76;99107.03;5090620;28;20032;-46
2023/09/27 02:27:25;;;;;;;7.97;4.78;;;;;;;14.38;71.70;99106.97;5091854;28;20035;-47
2023/09/27 02:29:51;;;;;;;9.48;5.28;;;;;;;14.17;72.57;99106.31;5091844;28;20020;-47
2023/09/27 02:32:17;;;;;;;10.95;4.70;;;;;;;14.05;73.50;99102.75;5091746;28;20028;-46
2023/09/27 02:34:44;;;;;;;8.30;5.28;;;;;;;14.06;74.37;99103.53;5091733;28;20073;-47
2023/09/27 02:37:09;;;;;;;8.88;4.53;;;;;;;14.13;74.40;99097.22;5073778;28;20063;-47
2023/09/27 02:39:35;;;;;;;11.60;5.32;;;;;;;14.15;74.32;99102.28;5090781;28;20428;-46
2023/09/27 02:42:01;;;;;;;15.45;5.55;;;;;;;13.96;74.23;99094.28;5091746;28;20032;-46
2023/09/27 02:44:26;;;;;;;10.93;5.13;;;;;;;13.86;75.05;99101.03;5091699;28;20110;-46
2023/09/27 02:46:54;;;;;;;10.65;5.20;;;;;;;13.91;75.73;99095.94;5091686;28;20024;-46
2023/09/27 02:49:21;;;;;;;7.15;4.78;;;;;;;13.92;75.30;99102.81;5091558;28;20040;-46
2023/09/27 02:51:51;;;;;;;8.85;4.90;;;;;;;13.98;75.48;99096.69;5090365;28;20028;-47
2023/09/27 02:54:17;;;;;;;9.68;5.00;;;;;;;13.82;75.27;99097.19;5091604;28;20028;-46
2023/09/27 02:56:43;;;;;;;7.68;4.80;;;;;;;13.57;75.93;99100.56;5091640;28;20478;-46
2023/09/27 02:59:13;;;;;;;10.30;5.10;;;;;;;13.42;76.70;99092.09;5091600;28;20092;-46
2023/09/27 03:01:40;;;;;;;11.27;5.57;;;;;;;13.26;77.66;99095.94;5091614;28;20024;-46
2023/09/27 03:04:10;;;;;;;6.65;4.68;;;;;;;13.12;78.55;99089.91;5091553;28;20046;-46
2023/09/27 03:06:37;;;;;;;12.07;5.57;;;;;;;13.05;79.75;99091.75;5091642;28;20035;-47
2023/09/27 03:09:04;;;;;;;13.52;5.82;;;;;;;13.01;80.04;99093.19;5091373;28;20102;-46
2023/09/27 03:11:30;;;;;;;11.25;5.18;;;;;;;12.92;80.42;99084.72;5091452;28;20032;-46
2023/09/27 03:13:56;;;;;;;10.80;5.88;;;;;;;12.82;80.79;99082.50;5091479;28;20043;-46
2023/09/27 03:16:22;;;;;;;8.77;5.35;;;;;;;12.77;81.54;99080.44;5091345;28;20043;-46
2023/09/27 03:18:47;;;;;;;11.40;5.32;;;;;;;12.81;81.66;99082.69;5090189;28;20077;-46
2023/09/27 03:21:13;;;;;;;8.27;4.78;;;;;;;12.75;81.98;99079.84;5090063;28;20032;-46
2023/09/27 03:23:39;;;;;;;8.50;5.00;;;;;;;12.71;81.82;99073.38;5091350;28;20563;-46
2023/09/27 03:26:04;;;;;;;9.13;4.70;;;;;;;12.66;82.21;99075.00;5091954;28;20032;-46
2023/09/27 03:28:30;;;;;;;7.38;4.63;;;;;;;12.64;82.82;99063.88;5093862;28;20483;-46
2023/09/27 03:30:56;;;;;;;11.95;5.57;;;;;;;12.65;82.95;99065.47;5095062;28;20387;-46
2023/09/27 03:33:22;;;;;;;8.15;5.10;;;;;;;12.66;82.62;99061.84;5093747;28;20028;-46
2023/09/27 03:35:48;;;;;;;9.55;4.65;;;;;;;12.74;83.05;99059.81;5094993;28;20098;-46
2023/09/27 03:38:13;;;;;;;10.18;4.80;;;;;;;12.77;82.89;99058.56;5093911;28;20044;-46
2023/09/27 03:40:40;;;;;;;9.38;5.35;;;;;;;12.66;82.89;99061.84;5093890;28;20102;-46
2023/09/27 03:43:05;;;;;;;10.82;4.65;;;;;;;12.68;83.33;99063.25;5094829;28;20085;-46
2023/09/27 03:45:33;;;;;;;10.70;5.10;;;;;;;12.68;83.19;99054.56;5093513;28;20024;-46
2023/09/27 03:47:58;;;;;;;8.35;5.05;;;;;;;12.73;83.07;99062.63;5094827;28;20024;-46
2023/09/27 03:50:24;;;;;;;11.88;4.72;;;;;;;12.78;82.89;99060.22;5093373;28;20481;-46
2023/09/27 03:52:50;;;;;;;16.75;4.85;;;;;;;12.95;82.91;99060.56;5094774;28;20035;-46
2023/09/27 03:55:16;;;;;;;22.45;5.85;;;;;;;13.58;84.52;99068.72;5094696;28;20065;-46
2023/09/27 03:57:42;;;;;;;11.57;5.45;;;;;;;14.55;82.29;99054.47;5093308;28;20402;-47
2023/09/27 04:00:14;;;;;;;10.02;5.70;;;;;;;15.08;79.01;99053.94;5094554;28;20034;-47
2023/09/27 04:02:40;;;;;;;12.02;5.40;;;;;;;15.68;76.09;99055.84;5094557;28;20031;-46
2023/09/27 04:05:06;;;;;;;9.93;5.70;;;;;;;16.14;73.53;99057.06;5094404;28;20032;-47
2023/09/27 04:07:32;;;;;;;11.73;5.68;;;;;;;16.43;70.53;99051.91;5094201;28;20047;-47
2023/09/27 04:09:58;;;;;;;12.35;5.05;;;;;;;16.48;69.51;99052.03;5094541;28;20024;-46
2023/09/27 04:12:23;;;;;;;17.15;5.18;;;;;;;16.58;68.71;99046.97;5094315;28;20027;-47
2023/09/27 04:14:49;;;;;;;10.60;5.22;;;;;;;16.65;67.36;99054.00;5094324;28;20036;-47
2023/09/27 04:17:15;;;;;;;17.88;5.35;;;;;;;16.45;66.97;99057.78;5094212;28;20577;-47
2023/09/27 04:19:40;;;;;;;9.23;5.03;;;;;;;16.42;67.20;99060.91;5092867;28;20123;-47
2023/09/27 04:22:06;;;;;;;14.35;5.45;;;;;;;16.46;66.76;99054.13;5094109;28;20452;-47
2023/09/27 04:24:32;;;;;;;14.25;4.50;;;;;;;16.38;66.55;99060.56;5094099;28;20017;-47
2023/09/27 04:26:59;;;;;;;7.88;4.22;;;;;;;16.00;65.83;99058.31;5094030;28;20070;-47
2023/09/27 04:29:26;;;;;;;10.60;5.15;;;;;;;15.28;66.54;99066.94;5093828;28;20081;-47
2023/09/27 04:31:52;;;;;;;13.93;5.43;;;;;;;15.03;68.90;99061.75;5094161;28;20046;-46
2023/09/27 04:34:18;;;;;;;15.27;5.38;;;;;;;15.23;69.65;99060.69;5093887;28;20024;-47
2023/09/27 04:36:44;;;;;;;18.95;6.03;;;;;;;15.49;69.46;99068.31;5093267;28;20024;-46
2023/09/27 04:39:18;;;;;;;21.52;5.93;;;;;;;15.88;68.73;99068.06;5093550;28;20028;-46
2023/09/27 04:41:46;;;;;;;10.85;4.68;;;;;;;16.07;67.48;99072.22;5093787;28;20132;-46
2023/09/27 04:44:15;;;;;;;12.43;5.40;;;;;;;15.98;66.98;99068.31;5093711;28;20516;-46
2023/09/27 04:46:41;;;;;;;13.98;6.28;;;;;;;16.11;67.37;99075.25;5093645;28;20020;-46
2023/09/27 04:49:07;;;;;;;11.82;4.93;;;;;;;16.42;66.92;99079.47;5092575;28;20578;-47
2023/09/27 04:51:33;;;;;;;14.32;6.15;;;;;;;16.68;65.85;99070.25;5092123;28;20024;-47
2023/09/27 04:54:02;;;;;;;15.55;6.18;;;;;;;16.85;65.22;99072.25;5093539;28;20413;-47
2023/09/27 04:56:29;;;;;;;13.40;5.25;;;;;;;16.89;64.54;99071.53;5093491;28;20453;-47
2023/09/27 04:58:55;;;;;;;13.88;5.78;;;;;;;16.97;64.22;99073.84;5093398;28;20020;-47
2023/09/27 05:01:22;;;;;;;22.08;5.90;;;;;;;17.08;63.74;99074.03;5091983;28;20028;-47
2023/09/27 05:03:48;;;;;;;12.10;5.50;;;;;;;17.18;63.13;99076.91;5093380;28;20043;-47
2023/09/27 05:06:14;;;;;;;14.35;5.45;;;;;;;17.09;62.72;99070.38;5093246;28;20024;-47
2023/09/27 05:08:39;;;;;;;8.05;4.95;;;;;;;16.96;62.54;99072.22;5091721;28;20660;-47
2023/09/27 05:11:05;;;;;;;16.45;5.78;;;;;;;16.88;62.87;99069.09;5092104;28;20452;-47
2023/09/27 05:13:31;;;;;;;14.48;5.32;;;;;;;16.67;62.74;99067.81;5091794;28;20056;-47
2023/09/27 05:15:56;;;;;;;10.48;4.55;;;;;;;16.48;63.11;99067.13;5093048;28;20028;-46
2023/09/27 05:18:22;;;;;;;20.13;5.63;;;;;;;16.29;63.37;99074.34;5091760;28;20020;-47
2023/09/27 05:20:48;;;;;;;10.43;4.63;;;;;;;15.99;63.82;99077.84;5091637;28;20036;-46
2023/09/27 05:23:14;;;;;;;19.25;5.18;;;;;;;15.61;64.35;99081.59;5091617;28;20024;-46
2023/09/27 05:25:40;;;;;;;21.50;6.10;;;;;;;15.27;65.29;99083.00;5092885;28;20032;-46
2023/09/27 05:28:06;;;;;;;20.92;5.22;;;;;;;14.96;66.19;99092.69;5075145;28;20020;-46
2023/09/27 05:30:32;;;;;;;20.77;5.78;;;;;;;14.67;66.88;99091.53;5091385;28;20031;-46
2023/09/27 05:32:57;;;;;;;16.75;5.65;;;;;;;14.41;67.98;99084.63;5092713;28;20097;-46
2023/09/27 05:35:23;;;;;;;12.15;4.70;;;;;;;14.22;68.81;99091.66;5092710;28;20103;-46
2023/09/27 05:37:50;;;;;;;10.00;4.63;;;;;;;14.05;69.27;99089.56;5092668;28;20254;-46
2023/09/27 05:40:16;;;;;;;15.27;6.22;;;;;;;13.88;70.07;99083.16;5092622;28;20035;-46
2023/09/27 05:42:42;;;;;;;13.13;4.90;;;;;;;13.78;70.81;99092.34;5091289;28;20020;-46
2023/09/27 05:45:11;;;;;;;18.10;5.60;;;;;;;13.66;71.36;99088.75;5092791;28;20027;-46
2023/09/27 05:47:39;;;;;;;15.07;4.93;;;;;;;13.85;72.55;99081.75;5091225;28;20047;-46
2023/09/27 05:50:08;;;;;;;14.30;5.15;;;;;;;13.95;71.82;99083.94;5092312;28;20123;-46
2023/09/27 05:52:34;;;;;;;10.88;5.25;;;;;;;13.93;71.49;99078.06;5092359;28;20027;-46
2023/09/27 05:55:01;;;;;;;10.82;4.97;;;;;;;13.86;71.76;99077.28;5092571;28;20447;-46
2023/09/27 05:57:26;;;;;;;16.73;5.68;;;;;;;13.73;72.01;99081.59;5092321;28;20020;-46
2023/09/27 05:59:53;;;;;;;12.23;5.30;;;;;;;13.82;72.54;99076.09;5092302;28;20077;-46
2023/09/27 06:02:20;;;;;;;19.80;6.15;;;;;;;14.13;73.55;99072.66;5092266;28;20024;-46
2023/09/27 06:04:47;;;;;;;11.35;4.43;;;;;;;14.66;72.31;99066.97;5092237;28;20016;-46
2023/09/27 06:07:13;;;;;;;11.05;5.13;;;;;;;14.73;70.60;99065.09;5091871;28;20367;-46
2023/09/27 06:09:41;;;;;;;17.95;5.90;;;;;;;14.37;69.99;99066.56;5090891;28;20570;-46
2023/09/27 06:12:07;;;;;;;11.80;4.97;;;;;;;14.48;70.88;99065.06;5092141;28;20024;-46
2023/09/27 06:14:34;;;;;;;12.18;6.13;;;;;;;14.85;69.39;99062.53;5092149;28;20020;-46
2023/09/27 06:17:02;;;;;;;12.18;5.45;;;;;;;15.29;68.42;99065.09;5090667;28;20032;-47
2023/09/27 06:19:30;;;;;;;13.77;5.40;;;;;;;15.82;66.81;99072.41;5092049;28;20047;-46
2023/09/27 06:21:57;;;;;;;9.35;5.25;;;;;;;16.30;65.11;99065.41;5092002;28;20103;-46
2023/09/27 06:24:24;;;;;;;12.30;6.50;;;;;;;16.77;63.66;99060.91;5091983;28;20016;-46
2023/09/27 06:26:50;;;;;;;11.93;6.10;;;;;;;17.36;61.87;99057.38;5091910;28;20028;-46
2023/09/27 06:29:16;;;;;;;20.92;6.55;;;;;;;17.64;60.08;99059.25;5091896;28;20016;-46
2023/09/27 06:31:44;;;;;;;26.95;5.97;;;;;;;17.94;59.95;99058.22;5091991;28;20094;-45
2023/09/27 06:34:11;;;;;;;11.00;5.55;;;;;;;18.38;58.90;99055.75;5092134;28;20385;-45
2023/09/27 06:36:37;;;;;;;9.30;5.15;;;;;;;19.10;57.31;99052.28;5090506;28;20124;-45
2023/09/27 06:39:07;;;;;;;8.52;5.78;;;;;;;19.44;55.52;99043.38;5090492;28;20058;-45
2023/09/27 06:41:34;;;;;;;11.00;5.85;;;;;;;19.52;55.17;99042.91;5092049;28;20032;-45
2023/09/27 06:44:00;;;;;;;13.38;5.07;;;;;;;19.34;54.74;99049.38;5091815;28;20119;-45
2023/09/27 06:46:26;;;;;;;12.77;5.40;;;;;;;19.33;55.33;99048.53;5091831;28;20405;-45
2023/09/27 06:48:52;;;;;;;81.65;10.65;;;;;;;19.65;54.94;99047.84;5091737;28;20019;-45
2023/09/27 06:51:18;;;;;;;29.02;7.53;;;;;;;20.18;53.50;99045.41;5090336;28;20024;-45
2023/09/27 06:53:44;;;;;;;10.50;5.03;;;;;;;20.61;51.77;99043.63;5090412;28;20024;-45
2023/09/27 06:56:10;;;;;;;10.80;4.63;;;;;;;20.82;51.35;99038.41;5090282;28;20139;-45
2023/09/27 06:58:35;;;;;;;10.88;4.93;;;;;;;21.07;49.87;99033.19;5091693;28;20084;-45
2023/09/27 07:01:01;;;;;;;13.20;4.97;;;;;;;21.06;49.55;99038.78;5092405;28;20031;-45
2023/09/27 07:03:33;;;;;;;18.13;5.53;;;;;;;21.17;49.43;99039.63;5094395;28;20020;-45
2023/09/27 07:05:59;;;;;;;9.88;4.60;;;;;;;22.05;48.17;99036.09;5095541;28;20093;-45
2023/09/27 07:08:24;;;;;;;13.40;5.43;;;;;;;23.09;45.77;99033.03;5094004;28;20044;-45
2023/09/27 07:10:50;;;;;;;11.50;5.00;;;;;;;23.60;44.49;99024.72;5095434;28;20024;-45
2023/09/27 07:13:16;;;;;;;13.68;5.07;;;;;;;24.25;43.27;99029.91;5095411;28;20529;-45
2023/09/27 07:15:45;;;;;;;13.63;5.40;;;;;;;25.06;41.84;99022.09;5094087;28;20370;-45
2023/09/27 07:18:12;;;;;;;11.50;4.70;;;;;;;25.97;40.42;99029.22;5095358;28;20099;-45
2023/09/27 07:20:40;;;;;;;18.15;5.03;;;;;;;26.69;38.55;99023.41;5095297;28;20023;-45
2023/09/27 07:23:07;;;;;;;15.85;6.20;;;;;;;27.33;37.03;99028.09;5093906;28;20020;-45
2023/09/27 07:25:37;;;;;;;14.40;5.30;;;;;;;27.87;35.71;99041.72;5095149;28;20426;-45
2023/09/27 07:28:04;;;;;;;12.50;4.95;;;;;;;28.23;35.09;99040.84;5095440;28;20400;-45
2023/09/27 07:30:33;;;;;;;12.15;5.32;;;;;;;28.39;34.50;99031.25;5093749;28;20024;-46
2023/09/27 07:32:59;;;;;;;11.98;5.22;;;;;;;28.65;34.17;99044.09;5095055;28;20024;-46
2023/09/27 07:35:29;;;;;;;12.35;5.20;;;;;;;28.95;33.57;99028.16;5095117;28;20454;-46
2023/09/27 07:37:55;;;;;;;34.88;6.68;;;;;;;29.18;33.55;99024.28;5095075;28;20028;-46
2023/09/27 07:40:21;;;;;;;30.23;6.32;;;;;;;29.40;33.33;99030.66;5094990;28;20115;-46
2023/09/27 07:42:48;;;;;;;29.85;6.60;;;;;;;29.49;33.56;99036.88;5093576;28;20142;-46
2023/09/27 07:45:25;;;;;;;18.23;5.82;;;;;;;29.59;33.04;99024.94;5094824;28;20020;-46
2023/09/27 07:47:53;;;;;;;30.25;5.50;;;;;;;29.58;32.90;99026.84;5094832;28;20031;-46
2023/09/27 07:50:21;;;;;;;22.60;5.68;;;;;;;29.57;32.85;99025.25;5093351;28;20017;-46
2023/09/27 07:52:47;;;;;;;30.88;6.78;;;;;;;29.68;32.92;99031.94;5094685;28;20393;-46
2023/09/27 07:55:14;;;;;;;20.67;6.07;;;;;;;30.04;32.03;99025.41;5094654;28;20026;-46
2023/09/27 07:57:43;;;;;;;39.80;6.70;;;;;;;30.36;31.80;99019.78;5094583;28;20032;-46
2023/09/27 08:00:10;;;;;;;18.50;4.47;;;;;;;30.23;31.77;99029.66;5094452;28;20020;-46
2023/09/27 08:02:39;;;;;;;31.08;6.45;;;;;;;30.06;32.09;99020.47;5093253;28;20106;-46
2023/09/27 08:05:09;;;;;;;18.27;4.88;;;;;;;30.12;31.93;99034.63;5093432;28;20111;-46
2023/09/27 08:07:38;;;;;;;23.95;5.63;;;;;;;30.02;32.16;99030.34;5094409;28;20071;-46
2023/09/27 08:10:06;;;;;;;53.92;8.18;;;;;;;30.14;32.65;99037.78;5094300;28;20096;-46
2023/09/27 08:12:34;;;;;;;52.42;9.40;;;;;;;30.58;31.88;99040.41;5093077;28;20077;-46
2023/09/27 08:15:03;;;;;;;16.58;5.05;;;;;;;30.90;30.69;99046.38;5094199;28;20024;-47
2023/09/27 08:17:30;;;;;;;11.52;4.22;;;;;;;31.04;30.66;99036.88;5094219;28;20020;-46
2023/09/27 08:19:56;;;;;;;39.38;7.47;;;;;;;31.56;30.31;99032.25;5094131;28;20047;-46
2023/09/27 08:22:22;;;;;;;21.02;6.78;;;;;;;32.14;29.42;99041.31;5094137;28;20062;-46
2023/09/27 08:24:47;;;;;;;19.63;6.40;;;;;;;32.61;28.21;99029.31;5094154;28;20485;-46
2023/09/27 08:27:13;;;;;;;46.97;8.90;;;;;;;33.13;28.04;99028.63;5093950;28;20031;-46
2023/09/27 08:29:39;;;;;;;26.58;6.57;;;;;;;33.61;27.03;99021.50;5093986;28;20028;-46
2023/09/27 08:32:08;;;;;;;31.10;6.75;;;;;;;34.12;26.28;99015.47;5093950;28;20020;-46
2023/09/27 08:34:34;;;;;;;60.42;11.30;;;;;;;34.47;25.88;99014.00;5093829;28;20024;-46
2023/09/27 08:37:00;;;;;;;42.03;9.10;;;;;;;34.56;25.81;99009.19;5093855;28;20024;-46
2023/09/27 08:39:27;;;;;;;30.13;6.47;;;;;;;34.70;25.52;99008.75;5093871;28;20020;-46
2023/09/27 08:41:55;;;;;;;23.08;7.22;;;;;;;34.93;25.24;99009.69;5093871;28;20024;-46
2023/09/27 08:44:23;;;;;;;17.98;5.35;;;;;;;35.14;25.14;99003.91;5093673;28;20024;-46
2023/09/27 08:46:50;;;;;;;39.63;9.25;;;;;;;35.23;24.93;99006.44;5092521;28;20085;-46
2023/09/27 08:49:17;;;;;;;57.58;9.75;;;;;;;34.94;25.32;99010.47;5093750;28;20020;-46
2023/09/27 08:51:45;;;;;;;27.83;6.20;;;;;;;34.95;25.22;99014.78;5093859;28;20381;-46
2023/09/27 08:54:12;;;;;;;23.65;6.47;;;;;;;35.14;24.97;99012.09;5093638;28;20051;-46
2023/09/27 08:56:38;;;;;;;42.90;8.40;;;;;;;35.14;24.94;99006.63;5093605;28;20452;-47
2023/09/27 08:59:05;;;;;;;22.60;6.75;;;;;;;35.26;24.72;99002.22;5093616;28;20024;-46
2023/09/27 09:01:33;;;;;;;29.88;7.63;;;;;;;35.47;24.65;99005.38;5093446;28;20142;-46
2023/09/27 09:03:59;;;;;;;23.50;7.53;;;;;;;35.71;24.35;99003.53;5093321;28;20055;-46
2023/09/27 09:06:27;;;;;;;25.08;6.45;;;;;;;35.89;24.11;99017.53;5093353;28;20031;-46
2023/09/27 09:08:52;;;;;;;36.40;7.95;;;;;;;36.06;23.79;99016.25;5093023;28;20048;-47
2023/09/27 09:11:19;;;;;;;49.25;7.38;;;;;;;36.18;23.99;99014.19;5093110;28;20030;-46
2023/09/27 09:14:04;;;;;;;109.00;67.82;;;;;;;36.46;23.44;99018.53;5091871;28;20051;-46
2023/09/27 09:16:55;;;;;;;40.72;11.18;;;;;;;36.46;23.10;99006.81;5093083;28;20020;-46
2023/09/27 09:19:25;;;;;;;65.00;8.80;;;;;;;36.35;23.28;99004.69;5092952;28;20050;-47
2023/09/27 09:21:56;;;;;;;46.75;8.82;;;;;;;36.39;23.25;99008.28;5093014;28;20024;-47
2023/09/27 09:24:22;;;;;;;15.82;5.32;;;;;;;36.08;23.35;99003.03;5092643;28;20110;-47
2023/09/27 09:27:03;;;;;;;40.63;9.95;;;;;;;35.73;24.06;99003.97;5091580;28;20020;-47
2023/09/27 09:29:46;;;;;;;89.03;19.88;;;;;;;35.84;25.09;99002.25;5092917;28;20039;-47
2023/09/27 09:32:13;;;;;;;54.70;14.57;;;;;;;36.02;24.87;99001.75;5092761;28;20075;-46
2023/09/27 09:34:43;;;;;;;15.25;7.53;;;;;;;35.90;24.43;99003.53;5092792;28;20497;-46
2023/09/27 09:37:17;;;;;;;42.30;14.20;;;;;;;35.49;24.99;98994.91;5092746;28;20024;-46
2023/09/27 09:39:43;;;;;;;37.92;12.18;;;;;;;35.47;25.03;98991.72;5091330;28;20016;-46
2023/09/27 09:42:09;;;;;;;26.92;7.90;;;;;;;35.45;24.49;98988.56;5092510;28;20127;-46
2023/09/27 09:44:35;;;;;;;27.40;9.57;;;;;;;35.49;24.07;98997.63;5091332;28;20110;-46
2023/09/27 09:47:12;;;;;;;23.15;7.50;;;;;;;35.77;24.45;98985.72;5092532;28;20020;-46
2023/09/27 09:49:38;;;;;;;15.80;7.57;;;;;;;36.21;23.57;98990.81;5091108;28;20028;-47
2023/09/27 09:52:05;;;;;;;39.15;16.25;;;;;;;36.35;23.67;98991.03;5092385;28;20516;-47
2023/09/27 09:54:48;;;;;;;10.68;4.25;;;;;;;36.59;22.64;98987.13;5092448;28;20102;-46
2023/09/27 09:57:18;;;;;;;10.60;8.50;;;;;;;36.87;22.58;98982.47;5092727;28;20028;-46
2023/09/27 10:00:18;;;;;;;28.17;10.52;;;;;;;36.96;22.31;98981.00;5092281;28;20031;-46
2023/09/27 10:02:50;;;;;;;9.68;4.45;;;;;;;37.33;22.01;98977.63;5092566;28;20024;-46
2023/09/27 10:05:22;;;;;;;11.10;4.40;;;;;;;37.41;21.97;98981.22;5092242;28;20043;-47
2023/09/27 10:07:49;;;;;;;13.05;4.03;;;;;;;37.14;21.23;98981.28;5090548;28;20548;-47
2023/09/27 10:10:19;;;;;;;4.13;3.65;;;;;;;35.79;21.56;98970.53;5090796;28;20061;-46
2023/09/27 10:12:47;;;;;;;16.25;5.97;;;;;;;34.53;24.13;98977.97;5090844;28;20103;-46
2023/09/27 10:15:18;;;;;;;12.55;4.47;;;;;;;35.08;23.98;98977.28;5092322;28;20042;-46
2023/09/27 10:17:45;;;;;;;15.73;3.90;;;;;;;35.93;22.84;98969.22;5092159;28;20103;-46
2023/09/27 10:20:17;;;;;;;10.80;3.95;;;;;;;36.74;21.41;98960.00;5091991;28;20031;-46
2023/09/27 10:22:47;;;;;;;4.90;3.42;;;;;;;37.16;21.35;98965.28;5092058;28;20034;-46
2023/09/27 10:25:30;;;;;;;20.90;5.72;;;;;;;37.63;21.36;98956.84;5091962;28;20085;-46
2023/09/27 10:27:59;;;;;;;11.27;3.80;;;;;;;37.85;20.39;98955.91;5092062;28;20431;-47
2023/09/27 10:30:25;;;;;;;13.10;4.53;;;;;;;38.04;20.55;98945.88;5091796;28;20048;-47
2023/09/27 10:33:20;;;;;;;24.15;6.20;;;;;;;38.38;20.67;98957.53;5091914;28;20134;-47
2023/09/27 10:36:06;;;;;;;18.23;4.97;;;;;;;38.56;20.00;98957.69;5091201;28;20016;-47
2023/09/27 10:38:41;;;;;;;12.95;3.90;;;;;;;38.35;20.09;98948.13;5090428;28;20513;-47
2023/09/27 10:41:07;;;;;;;15.50;5.43;;;;;;;38.44;20.43;98947.00;5091838;28;20032;-47
2023/09/27 10:43:36;;;;;;;20.20;6.05;;;;;;;38.55;20.08;98939.63;5091780;28;20047;-47
2023/09/27 10:46:05;;;;;;;15.18;4.80;;;;;;;38.62;19.61;98942.44;5090462;28;20069;-47
2023/09/27 10:48:31;;;;;;;9.82;3.55;;;;;;;38.57;19.58;98940.03;5091711;28;20073;-47
2023/09/27 10:50:57;;;;;;;10.88;4.82;;;;;;;38.42;19.96;98941.13;5090662;28;20020;-47
2023/09/27 10:53:32;;;;;;;4.65;3.22;;;;;;;38.15;19.33;98946.78;5090409;28;20024;-46
2023/09/27 10:55:58;;;;;;;3.60;3.25;;;;;;;38.15;19.31;98944.84;5091657;28;20081;-47
2023/09/27 10:58:24;;;;;;;5.18;3.45;;;;;;;37.99;19.19;98930.56;5091706;28;20028;-47
2023/09/27 11:00:58;;;;;;;19.38;5.97;;;;;;;38.15;19.83;98939.34;5091612;28;20032;-46
2023/09/27 11:03:24;;;;;;;29.13;5.57;;;;;;;38.00;19.94;98936.84;5091958;28;20032;-46
2023/09/27 11:05:50;;;;;;;9.20;4.30;;;;;;;38.21;19.75;98937.03;5091558;28;20441;-47
2023/09/27 11:08:25;;;;;;;72.25;15.82;;;;;;;38.65;19.30;98927.16;5089991;28;20043;-46
2023/09/27 11:10:56;;;;;;;74.20;12.45;;;;;;;38.60;18.89;98931.06;5091771;28;20379;-47
2023/09/27 11:13:22;;;;;;;85.00;13.32;;;;;;;38.33;18.82;98930.47;5091414;28;20047;-46
2023/09/27 11:15:48;;;;;;;15.93;4.75;;;;;;;37.82;19.14;98918.28;5091436;28;20027;-47
2023/09/27 11:18:13;;;;;;;19.05;4.60;;;;;;;37.91;19.10;98916.03;5090191;28;20036;-47
2023/09/27 11:20:39;;;;;;;42.72;7.90;;;;;;;37.84;19.16;98910.47;5091501;28;20024;-46
2023/09/27 11:23:05;;;;;;;39.13;7.60;;;;;;;37.57;19.17;98909.81;5091447;28;20394;-47
2023/09/27 11:25:35;;;;;;;8.45;3.70;;;;;;;37.60;19.16;98903.59;5091346;28;20432;-47
2023/09/27 11:28:02;;;;;;;30.85;7.05;;;;;;;37.32;19.06;98904.06;5091335;28;20048;-47